createdAt,value
2019-06-15T00:02:57.347Z,9.83
2019-06-15T00:07:04.286Z,7.53
2019-06-15T00:11:11.073Z,9.77
2019-06-15T00:15:18.169Z,8.77
2019-06-15T00:19:25.011Z,11.07
2019-06-15T00:23:31.983Z,6.67
2019-06-15T00:27:38.856Z,7.73
2019-06-15T00:31:46.164Z,7.93
2019-06-15T00:35:55.062Z,10.60
2019-06-15T00:40:03.777Z,8.80
2019-06-15T00:44:10.828Z,8.03
2019-06-15T00:48:17.850Z,8.53
2019-06-15T00:52:24.638Z,9.30
2019-06-15T00:56:31.486Z,7.17
2019-06-15T01:00:38.576Z,11.83
2019-06-15T01:04:45.466Z,8.10
2019-06-15T01:08:52.420Z,10.53
2019-06-15T01:12:59.474Z,9.00
2019-06-15T01:17:06.308Z,10.27
2019-06-15T01:21:13.450Z,9.70
2019-06-15T01:25:21.957Z,9.43
2019-06-15T01:29:28.870Z,9.10
2019-06-15T01:33:35.750Z,8.50
2019-06-15T01:37:46.479Z,12.87
2019-06-15T01:41:53.269Z,10.80
2019-06-15T01:45:59.986Z,13.73
2019-06-15T01:50:07.016Z,10.83
2019-06-15T01:54:13.818Z,12.33
2019-06-15T01:58:20.544Z,11.20
2019-06-15T02:02:27.271Z,11.50
2019-06-15T02:06:34.261Z,11.23
2019-06-15T02:10:41.024Z,10.13
2019-06-15T02:14:48.034Z,9.97
2019-06-15T02:18:54.906Z,10.83
2019-06-15T02:23:02.065Z,9.80
2019-06-15T02:27:08.850Z,11.93
2019-06-15T02:31:15.711Z,10.37
2019-06-15T02:35:22.706Z,11.20
2019-06-15T02:39:29.656Z,15.10
2019-06-15T02:43:36.614Z,14.07
2019-06-15T02:47:43.469Z,12.93
2019-06-15T02:51:52.581Z,12.33
2019-06-15T02:56:02.070Z,13.40
2019-06-15T03:00:11.209Z,11.67
2019-06-15T03:04:39.080Z,11.97
2019-06-15T03:08:49.732Z,12.53
2019-06-15T03:12:57.348Z,10.57
2019-06-15T03:17:04.308Z,10.73
2019-06-15T03:21:11.177Z,11.50
2019-06-15T03:25:18.205Z,15.90
2019-06-15T03:29:25.128Z,12.23
2019-06-15T03:33:32.286Z,11.00
2019-06-15T03:37:40.856Z,13.23
2019-06-15T03:41:47.768Z,10.20
2019-06-15T03:45:54.932Z,12.63
2019-06-15T03:50:02.129Z,12.13
2019-06-15T03:54:09.292Z,11.37
2019-06-15T03:58:18.806Z,13.77
2019-06-15T04:02:28.726Z,13.67
2019-06-15T04:06:35.792Z,15.07
2019-06-15T04:10:45.185Z,13.07
2019-06-15T04:14:52.585Z,11.53
2019-06-15T04:38:35.754Z,12.60
2019-06-15T05:42:16.052Z,9.97
2019-06-15T05:46:46.981Z,11.67
2019-06-15T06:07:45.205Z,8.13
2019-06-15T06:11:52.005Z,8.70
2019-06-15T06:16:00.066Z,10.73
2019-06-15T06:20:08.372Z,7.30
2019-06-15T06:24:16.317Z,8.27
2019-06-15T06:28:37.957Z,5.27
2019-06-15T06:32:50.657Z,6.87
2019-06-15T06:36:59.567Z,6.27
2019-06-15T06:41:39.048Z,8.10
2019-06-15T06:46:16.422Z,7.83
2019-06-15T06:50:31.083Z,8.13
2019-06-15T06:55:00.642Z,6.70
2019-06-15T06:59:20.274Z,6.50
2019-06-15T07:04:00.204Z,7.20
2019-06-15T07:08:29.257Z,6.77
2019-06-15T07:12:45.313Z,9.03
2019-06-15T07:27:39.019Z,7.07
2019-06-15T07:31:49.356Z,6.70
2019-06-15T07:36:06.340Z,6.97
2019-06-15T07:40:17.756Z,4.37
2019-06-15T07:44:30.322Z,5.20
2019-06-15T07:48:52.224Z,4.47
2019-06-15T07:53:24.803Z,5.10
2019-06-15T07:58:24.037Z,8.40
2019-06-15T08:03:16.199Z,4.40
2019-06-15T08:08:11.910Z,4.33
2019-06-15T08:12:21.358Z,4.00
2019-06-15T08:16:55.061Z,4.77
2019-06-15T08:21:02.054Z,3.53
2019-06-15T08:25:10.114Z,4.80
2019-06-15T08:29:25.824Z,5.47
2019-06-15T08:33:37.436Z,4.63
2019-06-15T08:37:50.240Z,4.63
2019-06-15T08:42:07.557Z,5.13
2019-06-15T08:46:33.946Z,4.60
2019-06-15T08:50:45.792Z,3.50
2019-06-15T08:54:58.521Z,3.10
2019-06-15T08:59:05.921Z,2.63
2019-06-15T09:03:17.603Z,4.63
2019-06-15T09:07:24.821Z,3.33
2019-06-15T09:11:31.929Z,3.20
2019-06-15T09:15:52.648Z,2.30
2019-06-15T09:19:59.439Z,3.77
2019-06-15T09:24:06.178Z,2.57
2019-06-15T09:28:13.032Z,3.00
2019-06-15T09:32:19.915Z,2.10
2019-06-15T09:36:26.640Z,1.50
2019-06-15T09:40:33.615Z,1.87
2019-06-15T09:44:40.511Z,3.30
2019-06-15T09:48:49.832Z,2.80
2019-06-15T09:52:57.936Z,2.30
2019-06-15T09:57:05.196Z,2.20
2019-06-15T10:01:15.215Z,1.80
2019-06-15T10:05:21.962Z,3.47
2019-06-15T10:09:29.098Z,2.03
2019-06-15T10:13:35.843Z,2.30
2019-06-15T10:17:42.738Z,2.87
2019-06-15T10:21:49.748Z,2.33
2019-06-15T10:25:57.679Z,2.93
2019-06-15T10:30:07.748Z,2.57
2019-06-15T10:34:14.789Z,2.77
2019-06-15T10:38:22.692Z,2.60
2019-06-15T10:42:29.489Z,3.07
2019-06-15T10:46:42.429Z,5.03
2019-06-15T10:50:49.472Z,3.07
2019-06-15T10:54:56.344Z,3.50
2019-06-15T10:59:03.830Z,3.67
2019-06-15T11:03:11.063Z,2.53
2019-06-15T11:07:18.868Z,2.20
2019-06-15T11:11:25.839Z,3.07
2019-06-15T11:15:33.082Z,2.50
2019-06-15T11:19:42.665Z,2.40
2019-06-15T11:23:49.553Z,2.30
2019-06-15T11:27:57.985Z,2.40
2019-06-15T11:32:05.245Z,2.43
2019-06-15T11:36:11.989Z,2.73
2019-06-15T11:40:21.023Z,2.60
2019-06-15T11:44:30.803Z,2.97
2019-06-15T11:48:37.689Z,2.73
2019-06-15T11:52:50.103Z,2.33
2019-06-15T11:56:56.945Z,2.70
2019-06-15T12:01:03.878Z,2.67
2019-06-15T12:05:10.893Z,2.43
2019-06-15T12:09:18.732Z,2.57
2019-06-15T12:13:25.553Z,3.17
2019-06-15T12:17:32.886Z,2.37
2019-06-15T12:21:39.676Z,2.80
2019-06-15T12:25:47.623Z,2.73
2019-06-15T12:29:54.921Z,2.27
2019-06-15T12:34:02.022Z,2.60
2019-06-15T12:38:11.832Z,3.00
2019-06-15T12:42:18.705Z,4.57
2019-06-15T12:50:49.985Z,3.63
2019-06-15T12:54:58.198Z,3.27
2019-06-15T12:59:04.994Z,2.73
2019-06-15T13:03:12.282Z,2.90
2019-06-15T13:07:19.229Z,2.43
2019-06-15T13:11:26.184Z,3.10
2019-06-15T13:15:33.646Z,4.70
2019-06-15T13:19:40.532Z,3.83
2019-06-15T13:23:47.411Z,2.63
2019-06-15T13:27:54.620Z,2.70
2019-06-15T13:32:01.371Z,3.60
2019-06-15T13:36:08.186Z,3.00
2019-06-15T13:40:15.157Z,3.40
2019-06-15T13:44:22.080Z,2.83
2019-06-15T13:48:28.945Z,2.93
2019-06-15T13:52:35.739Z,2.97
2019-06-15T13:56:42.595Z,3.30
2019-06-15T14:00:49.383Z,2.90
2019-06-15T14:04:57.009Z,2.50
2019-06-15T14:09:05.400Z,2.30
2019-06-15T14:13:12.305Z,2.80
2019-06-15T14:17:19.610Z,2.57
2019-06-15T14:21:26.492Z,3.20
2019-06-15T14:25:33.328Z,2.40
2019-06-15T14:29:40.197Z,3.00
2019-06-15T14:33:46.990Z,2.87
2019-06-15T14:37:53.775Z,2.90
2019-06-15T14:42:00.602Z,3.40
2019-06-15T14:46:07.391Z,3.10
2019-06-15T14:50:14.538Z,3.27
2019-06-15T14:54:21.569Z,3.30
2019-06-15T14:58:28.370Z,2.40
2019-06-15T15:02:37.135Z,4.00
2019-06-15T15:06:44.077Z,2.77
2019-06-15T15:10:51.099Z,2.57
2019-06-15T15:15:00.724Z,2.97
2019-06-15T15:19:07.643Z,2.90
2019-06-15T15:23:15.789Z,3.30
2019-06-15T15:27:27.012Z,3.00
2019-06-15T15:31:36.247Z,2.97
2019-06-15T15:35:43.519Z,2.80
2019-06-15T15:39:50.420Z,3.00
2019-06-15T15:43:57.205Z,2.70
2019-06-15T15:48:06.593Z,2.53
2019-06-15T15:52:12.644Z,7.63
2019-06-15T15:56:19.395Z,3.90
2019-06-15T16:00:32.819Z,3.63
2019-06-15T16:04:39.613Z,3.63
2019-06-15T16:08:47.236Z,3.80
2019-06-15T16:12:56.671Z,3.10
2019-06-15T16:17:02.741Z,3.40
2019-06-15T16:21:09.783Z,3.40
2019-06-15T16:25:17.495Z,3.50
2019-06-15T16:29:24.890Z,3.00
2019-06-15T16:33:31.761Z,3.00
2019-06-15T16:37:38.817Z,2.83
2019-06-15T16:41:47.034Z,3.00
2019-06-15T16:45:57.040Z,3.73
2019-06-15T16:50:06.927Z,3.27
2019-06-15T16:54:16.753Z,3.00
2019-06-15T16:58:26.348Z,2.93
2019-06-15T17:02:32.171Z,2.67
2019-06-15T17:06:40.829Z,4.03
2019-06-15T17:10:47.528Z,4.03
2019-06-15T17:14:55.209Z,3.47
2019-06-15T17:19:02.027Z,3.70
2019-06-15T17:23:08.799Z,3.10
2019-06-15T17:27:17.093Z,3.40
2019-06-15T17:31:24.116Z,3.03
2019-06-15T17:35:30.890Z,3.13
2019-06-15T17:39:37.688Z,4.97
2019-06-15T17:43:47.214Z,3.47
2019-06-15T17:47:52.935Z,3.10
2019-06-15T17:51:59.816Z,3.60
2019-06-15T17:56:07.337Z,3.57
2019-06-15T18:00:16.567Z,3.20
2019-06-15T18:04:23.521Z,4.70
2019-06-15T18:08:30.655Z,4.37
2019-06-15T18:12:38.154Z,4.13
2019-06-15T18:16:47.057Z,4.53
2019-06-15T18:20:53.748Z,4.70
2019-06-15T18:25:02.189Z,3.83
2019-06-15T18:29:09.359Z,4.83
2019-06-15T18:33:16.476Z,6.97
2019-06-15T18:37:25.714Z,8.40
2019-06-15T18:41:40.239Z,7.47
2019-06-15T18:46:22.235Z,8.53
2019-06-15T18:50:37.669Z,8.60
2019-06-15T18:54:51.037Z,6.83
2019-06-15T18:58:57.978Z,7.30
2019-06-15T19:03:26.283Z,6.50
2019-06-15T19:07:43.308Z,6.20
2019-06-15T19:11:56.454Z,5.03
2019-06-15T19:16:03.036Z,6.40
2019-06-15T19:20:12.176Z,4.20
2019-06-15T19:24:21.702Z,5.10
2019-06-15T19:28:27.919Z,5.00
2019-06-15T19:32:37.763Z,5.83
2019-06-15T19:36:47.733Z,5.33
2019-06-15T19:40:56.580Z,5.20
2019-06-15T19:45:07.745Z,5.47
2019-06-15T19:49:17.011Z,6.90
2019-06-15T19:53:23.336Z,5.27
2019-06-15T19:57:30.667Z,6.50
2019-06-15T20:01:37.519Z,5.20
2019-06-15T20:05:46.169Z,5.47
2019-06-15T20:09:53.458Z,5.57
2019-06-15T20:14:24.846Z,7.33
2019-06-15T20:18:34.076Z,14.70
2019-06-15T20:22:41.231Z,6.23
2019-06-15T20:26:48.314Z,5.97
2019-06-15T20:30:57.091Z,5.70
2019-06-15T20:35:16.190Z,6.03
2019-06-15T20:39:12.471Z,5.67
2019-06-15T20:43:24.222Z,5.73
2019-06-15T20:47:30.990Z,5.80
2019-06-15T20:51:41.250Z,5.30
2019-06-15T20:55:49.245Z,5.90
2019-06-15T20:59:56.515Z,5.50
2019-06-15T21:04:07.331Z,5.40
2019-06-15T21:08:15.849Z,5.47
2019-06-15T21:12:23.449Z,5.10
2019-06-15T21:16:32.010Z,6.03
2019-06-15T21:20:38.910Z,6.07
2019-06-15T21:24:46.671Z,8.77
2019-06-15T21:28:53.427Z,5.10
2019-06-15T21:33:00.296Z,5.50
2019-06-15T21:37:08.378Z,5.60
2019-06-15T21:41:16.643Z,5.70
2019-06-15T21:45:23.684Z,5.23
2019-06-15T21:49:30.550Z,5.83
2019-06-15T21:53:37.331Z,5.70
2019-06-15T21:57:44.086Z,5.17
2019-06-15T22:01:50.871Z,4.93
2019-06-15T22:06:03.090Z,20.87
2019-06-15T22:10:09.060Z,5.93
2019-06-15T22:14:17.123Z,6.40
2019-06-15T22:18:27.101Z,7.70
2019-06-15T22:22:32.683Z,6.20
2019-06-15T22:26:39.481Z,7.43
2019-06-15T22:30:46.468Z,7.73
2019-06-15T22:34:53.126Z,10.33
2019-06-15T22:38:59.952Z,9.57
2019-06-15T22:43:07.086Z,8.80
2019-06-15T22:47:16.689Z,9.27
2019-06-15T22:51:22.414Z,8.80
2019-06-15T22:55:29.123Z,8.93
2019-06-15T22:59:35.870Z,8.27
2019-06-15T23:03:42.657Z,8.30
2019-06-15T23:07:49.442Z,8.90
2019-06-15T23:11:57.365Z,8.67
2019-06-15T23:16:04.181Z,8.53
2019-06-15T23:20:11.004Z,9.93
2019-06-15T23:24:17.719Z,7.87
2019-06-15T23:28:26.852Z,7.33
2019-06-15T23:32:32.885Z,7.37
2019-06-15T23:36:54.234Z,6.80
2019-06-15T23:40:50.407Z,7.13
2019-06-15T23:44:57.133Z,7.27
2019-06-15T23:49:03.838Z,7.10
2019-06-15T23:53:10.583Z,7.73
2019-06-15T23:57:17.309Z,8.00
